Time;durP1;ratioP1;P1;durP2;ratioP2;P2;SDS_P1;SDS_P2;PMS_P1;PMS_P2;Temp;Humidity;BMP_temperature;BMP_pressure;BME280_temperature;BME280_humidity;BME280_pressure;Samples;Min_cycle;Max_cycle;Signal;HPM_P1;HPM_P2
2022/08/01 00:01:08;;;;;;;7.63;3.20;;;18.70;99.90;;;;;;5076800;28;20040;-57
2022/08/01 00:03:34;;;;;;;3.95;2.90;;;18.50;99.90;;;;;;5076645;28;20491;-57
2022/08/01 00:06:00;;;;;;;6.72;2.90;;;18.60;99.90;;;;;;5076685;28;20119;-57
2022/08/01 00:08:25;;;;;;;6.13;3.00;;;18.50;99.90;;;;;;5076642;28;20047;-57
2022/08/01 00:10:54;;;;;;;7.22;3.25;;;18.60;99.90;;;;;;5076686;28;20047;-58
2022/08/01 00:13:20;;;;;;;6.30;3.10;;;18.40;99.90;;;;;;5076681;28;20086;-57
2022/08/01 00:15:45;;;;;;;4.05;2.70;;;18.60;99.90;;;;;;5076457;28;20390;-57
2022/08/01 00:18:11;;;;;;;3.70;2.80;;;18.70;99.90;;;;;;5076485;28;20050;-57
2022/08/01 00:20:36;;;;;;;4.72;2.65;;;18.30;99.90;;;;;;5076571;28;20178;-57
2022/08/01 00:23:03;;;;;;;3.08;2.10;;;18.30;99.90;;;;;;5076424;28;20390;-56
2022/08/01 00:25:29;;;;;;;5.55;2.38;;;18.30;99.90;;;;;;5076422;28;20032;-57
2022/08/01 00:27:54;;;;;;;6.57;2.45;;;18.50;99.90;;;;;;5076411;28;20040;-57
2022/08/01 00:30:20;;;;;;;5.95;2.53;;;18.30;99.90;;;;;;5076216;28;20119;-57
2022/08/01 00:32:46;;;;;;;3.20;2.30;;;18.60;99.90;;;;;;5076272;28;20062;-57
2022/08/01 00:35:13;;;;;;;5.90;2.72;;;18.40;99.90;;;;;;5076275;28;20479;-56
2022/08/01 00:37:38;;;;;;;4.07;2.80;;;18.60;99.90;;;;;;5076211;28;20040;-57
2022/08/01 00:40:05;;;;;;;5.18;3.22;;;18.50;99.90;;;;;;5076518;28;20056;-57
2022/08/01 00:42:30;;;;;;;6.18;3.72;;;18.50;99.90;;;;;;5075976;28;20036;-57
2022/08/01 00:44:56;;;;;;;10.57;3.00;;;18.40;99.90;;;;;;5075956;28;20391;-57
2022/08/01 00:47:22;;;;;;;6.57;4.05;;;18.50;99.90;;;;;;5076024;28;20037;-57
2022/08/01 00:49:47;;;;;;;7.45;4.22;;;18.60;99.90;;;;;;5073833;28;20043;-58
2022/08/01 00:52:13;;;;;;;6.00;3.70;;;18.20;99.90;;;;;;5075386;28;20036;-58
2022/08/01 00:54:39;;;;;;;9.35;5.20;;;18.20;99.90;;;;;;5074734;28;20050;-58
2022/08/01 00:57:05;;;;;;;9.82;4.63;;;18.60;99.90;;;;;;5075845;28;20063;-57
2022/08/01 00:59:31;;;;;;;8.32;4.38;;;18.20;99.90;;;;;;5075707;28;20033;-57
2022/08/01 01:01:56;;;;;;;6.15;3.72;;;18.50;99.90;;;;;;5074615;28;20044;-58
2022/08/01 01:04:22;;;;;;;12.23;5.35;;;18.60;99.90;;;;;;5075673;28;20036;-57
2022/08/01 01:07:00;;;;;;;5.65;4.35;;;18.20;99.90;;;;;;5074142;28;20037;-58
2022/08/01 01:09:40;;;;;;;8.60;3.00;;;18.50;99.90;;;;;;5075617;28;20044;-57
2022/08/01 01:12:25;;;;;;;8.85;3.42;;;18.30;99.90;;;;;;5075627;28;20082;-58
2022/08/01 01:15:06;;;;;;;6.45;2.80;;;18.10;99.90;;;;;;5075413;28;20040;-57
2022/08/01 01:17:44;;;;;;;9.57;2.60;;;18.10;99.90;;;;;;5075432;28;20050;-57
2022/08/01 01:20:12;;;;;;;6.30;2.70;;;18.10;99.90;;;;;;5075222;28;20465;-57
2022/08/01 01:22:38;;;;;;;5.70;2.38;;;18.30;99.90;;;;;;5075179;28;20466;-57
2022/08/01 01:25:31;;;;;;;7.47;2.78;;;18.00;99.90;;;;;;5075314;28;20163;-57
2022/08/01 01:28:20;;;;;;;6.03;2.70;;;18.50;99.90;;;;;;5074889;28;20491;-57
2022/08/01 01:30:51;;;;;;;5.30;2.75;;;18.20;99.90;;;;;;5075032;28;20124;-56
2022/08/01 01:33:19;;;;;;;6.22;2.17;;;18.40;99.90;;;;;;5075155;28;20106;-56
2022/08/01 01:35:49;;;;;;;8.52;2.50;;;18.30;99.90;;;;;;5073689;28;20391;-56
2022/08/01 01:38:26;;;;;;;10.60;2.42;;;18.00;99.90;;;;;;5074858;28;20060;-57
2022/08/01 01:40:54;;;;;;;6.43;2.42;;;18.30;99.90;;;;;;5074876;28;20045;-56
2022/08/01 01:43:22;;;;;;;4.32;2.58;;;18.00;99.90;;;;;;5074804;28;20399;-57
2022/08/01 01:45:48;;;;;;;8.97;2.23;;;18.00;99.90;;;;;;5074886;28;20044;-57
2022/08/01 01:48:19;;;;;;;10.02;2.75;;;18.00;99.90;;;;;;5074644;28;20090;-56
2022/08/01 01:50:49;;;;;;;4.05;2.20;;;18.10;99.90;;;;;;5073370;28;20040;-56
2022/08/01 01:53:18;;;;;;;6.05;1.92;;;18.30;99.90;;;;;;5074588;28;20504;-57
2022/08/01 01:55:46;;;;;;;7.72;2.42;;;18.10;99.90;;;;;;5074720;28;20429;-57
2022/08/01 01:58:14;;;;;;;8.82;2.15;;;18.20;99.90;;;;;;5074643;28;20119;-58
2022/08/01 02:00:44;;;;;;;11.82;3.17;;;17.90;99.90;;;;;;5074215;28;20086;-57
2022/08/01 02:03:11;;;;;;;13.20;3.17;;;18.20;99.90;;;;;;5074101;28;20041;-57
2022/08/01 02:05:38;;;;;;;7.22;2.22;;;18.10;99.90;;;;;;5074368;28;20052;-57
2022/08/01 02:08:05;;;;;;;6.63;1.70;;;17.80;99.90;;;;;;5074448;28;20474;-57
2022/08/01 02:10:33;;;;;;;6.60;1.63;;;18.20;99.90;;;;;;5074321;28;20483;-56
2022/08/01 02:13:01;;;;;;;5.47;2.00;;;18.00;99.90;;;;;;5074276;28;20561;-57
2022/08/01 02:15:31;;;;;;;7.32;1.50;;;17.80;99.90;;;;;;5074287;28;20066;-57
2022/08/01 02:17:58;;;;;;;9.50;2.22;;;17.90;99.90;;;;;;5074325;28;20091;-57
2022/08/01 02:20:26;;;;;;;9.25;1.77;;;17.90;99.90;;;;;;5074092;28;20089;-57
2022/08/01 02:22:57;;;;;;;13.60;2.05;;;18.00;99.90;;;;;;5074252;28;20399;-57
2022/08/01 02:25:28;;;;;;;4.03;1.30;;;18.00;99.90;;;;;;5074398;28;20433;-57
2022/08/01 02:28:05;;;;;;;5.82;1.52;;;18.00;99.90;;;;;;5074130;28;20086;-57
2022/08/01 02:30:37;;;;;;;7.28;2.35;;;17.90;99.90;;;;;;5074031;28;20036;-59
2022/08/01 02:33:09;;;;;;;8.98;2.03;;;17.80;99.90;;;;;;5074086;28;20047;-58
2022/08/01 02:35:40;;;;;;;8.60;1.83;;;17.90;99.90;;;;;;5074274;28;20040;-57
2022/08/01 02:38:09;;;;;;;14.45;2.95;;;18.10;99.90;;;;;;5073795;28;20131;-56
2022/08/01 02:40:37;;;;;;;16.48;3.60;;;18.00;99.90;;;;;;5073854;28;20072;-57
2022/08/01 02:43:06;;;;;;;11.48;2.92;;;17.70;99.90;;;;;;5074000;28;20085;-57
2022/08/01 02:45:35;;;;;;;13.15;3.88;;;17.70;99.90;;;;;;5073836;28;20049;-57
2022/08/01 02:48:03;;;;;;;;;;;17.70;99.90;;;;;;5074433;28;20390;-57
2022/08/01 02:50:31;;;;;;;12.77;3.38;;;18.00;99.90;;;;;;5073852;28;20285;-56
2022/08/01 02:52:57;;;;;;;18.27;4.05;;;17.60;99.90;;;;;;5073791;28;20055;-57
2022/08/01 02:55:25;;;;;;;7.57;2.72;;;17.80;99.90;;;;;;5073874;28;20048;-57
2022/08/01 02:57:53;;;;;;;10.77;3.37;;;17.80;99.90;;;;;;5073555;28;20055;-56
2022/08/01 03:00:19;;;;;;;11.45;3.67;;;17.70;99.90;;;;;;5073458;28;20479;-57
2022/08/01 03:02:48;;;;;;;7.85;2.55;;;17.60;99.90;;;;;;5073780;28;20090;-57
2022/08/01 03:05:14;;;;;;;13.65;3.63;;;17.80;99.90;;;;;;5073752;28;20029;-57
2022/08/01 03:07:41;;;;;;;12.52;2.78;;;17.70;99.90;;;;;;5073656;28;20120;-58
2022/08/01 03:10:09;;;;;;;8.93;2.65;;;17.80;99.90;;;;;;5073348;28;20049;-57
2022/08/01 03:12:36;;;;;;;10.05;2.90;;;17.60;99.90;;;;;;5073678;28;20111;-57
2022/08/01 03:15:04;;;;;;;10.80;3.30;;;17.60;99.90;;;;;;5076863;28;20398;-57
2022/08/01 03:17:32;;;;;;;9.32;3.03;;;17.70;99.90;;;;;;5077755;28;20036;-57
2022/08/01 03:19:58;;;;;;;10.25;3.00;;;17.60;99.90;;;;;;5077409;28;20170;-57
2022/08/01 03:22:27;;;;;;;11.07;3.45;;;17.40;99.90;;;;;;5077653;28;20040;-57
2022/08/01 03:24:56;;;;;;;10.38;2.50;;;17.50;99.90;;;;;;5077649;28;20040;-58
2022/08/01 03:27:24;;;;;;;7.00;2.95;;;17.50;99.90;;;;;;5077561;28;20041;-58
2022/08/01 03:29:50;;;;;;;6.55;2.40;;;17.60;99.90;;;;;;5077506;28;20505;-58
2022/08/01 03:32:18;;;;;;;9.07;2.30;;;17.40;99.90;;;;;;5077295;28;20098;-57
2022/08/01 03:34:45;;;;;;;19.73;3.42;;;17.60;99.90;;;;;;5077385;28;20036;-58
2022/08/01 03:37:55;;;;;;;11.27;2.72;;;17.60;99.90;;;;;;5077160;28;20040;-55
2022/08/01 03:40:24;;;;;;;11.25;2.75;;;17.50;99.90;;;;;;5035173;28;20439;-57
2022/08/01 03:42:56;;;;;;;11.02;3.03;;;17.50;99.90;;;;;;5035101;28;20077;-57
2022/08/01 03:45:27;;;;;;;11.65;3.30;;;17.30;99.90;;;;;;5035191;28;20472;-57
2022/08/01 03:47:59;;;;;;;9.65;3.10;;;17.40;99.90;;;;;;5034984;28;20131;-57
2022/08/01 03:50:26;;;;;;;11.07;2.97;;;17.50;99.90;;;;;;5035045;28;20423;-57
2022/08/01 03:52:56;;;;;;;10.15;2.85;;;17.50;99.90;;;;;;5034799;28;20539;-57
2022/08/01 03:55:24;;;;;;;10.77;2.88;;;17.50;99.90;;;;;;5035010;28;20049;-57
2022/08/01 03:57:51;;;;;;;12.88;3.50;;;17.20;99.90;;;;;;5034868;28;20470;-57
2022/08/01 04:00:20;;;;;;;9.70;2.63;;;17.50;99.90;;;;;;5034637;28;20053;-57
2022/08/01 04:02:49;;;;;;;9.10;2.72;;;17.30;99.90;;;;;;5034849;28;20033;-57
2022/08/01 04:05:16;;;;;;;11.27;3.55;;;17.50;99.90;;;;;;5034803;28;20451;-57
2022/08/01 04:07:47;;;;;;;13.63;3.35;;;17.50;99.90;;;;;;5034642;28;20491;-57
2022/08/01 04:10:12;;;;;;;10.45;2.95;;;17.30;99.90;;;;;;5034711;28;20037;-57
2022/08/01 04:12:38;;;;;;;11.07;3.03;;;17.30;99.90;;;;;;5034519;28;20114;-57
2022/08/01 04:15:05;;;;;;;8.82;2.17;;;17.50;99.90;;;;;;5068953;28;20066;-57
2022/08/01 04:17:30;;;;;;;7.95;2.40;;;17.30;99.90;;;;;;5076375;28;20119;-57
2022/08/01 04:19:56;;;;;;;12.30;3.15;;;17.40;99.90;;;;;;5076540;28;20123;-57
2022/08/01 04:22:21;;;;;;;12.27;2.55;;;17.50;99.90;;;;;;5076494;28;20060;-57
2022/08/01 04:24:50;;;;;;;17.50;3.15;;;17.30;99.90;;;;;;5076129;28;20071;-57
2022/08/01 04:27:22;;;;;;;14.77;2.65;;;17.60;99.90;;;;;;5076130;28;20033;-57
2022/08/01 04:29:51;;;;;;;13.95;2.80;;;17.50;99.90;;;;;;5076407;28;20426;-57
2022/08/01 04:32:20;;;;;;;22.02;3.70;;;17.60;99.90;;;;;;5076398;28;20053;-57
2022/08/01 04:34:47;;;;;;;11.80;2.95;;;17.50;99.90;;;;;;5076193;28;20592;-57
2022/08/01 04:37:16;;;;;;;8.13;2.60;;;17.40;99.90;;;;;;5076243;28;20498;-58
2022/08/01 04:39:42;;;;;;;;;;;17.40;99.90;;;;;;5076174;28;20048;-57
2022/08/01 04:42:10;;;;;;;13.10;2.58;;;17.40;99.90;;;;;;5075673;28;19916;-57
2022/08/01 04:44:37;;;;;;;11.80;3.03;;;17.60;99.90;;;;;;5075879;28;20552;-57
2022/08/01 04:47:05;;;;;;;13.38;3.60;;;17.50;99.90;;;;;;5076152;28;20072;-57
2022/08/01 04:49:34;;;;;;;14.67;4.27;;;17.50;99.90;;;;;;5076133;28;20115;-58
2022/08/01 04:52:00;;;;;;;15.68;3.90;;;17.40;99.90;;;;;;5076036;28;20336;-57
2022/08/01 04:54:27;;;;;;;8.80;3.22;;;17.40;99.90;;;;;;5074973;28;20052;-58
2022/08/01 04:57:00;;;;;;;6.90;2.17;;;17.50;99.90;;;;;;5074518;28;20495;-58
2022/08/01 04:59:42;;;;;;;16.75;3.28;;;17.60;99.90;;;;;;5075810;28;20037;-58
2022/08/01 05:02:09;;;;;;;10.40;3.85;;;17.60;99.90;;;;;;5075588;28;20036;-57
2022/08/01 05:04:37;;;;;;;14.03;3.03;;;17.40;99.90;;;;;;5075849;28;20441;-58
2022/08/01 05:07:04;;;;;;;10.40;2.30;;;17.50;99.90;;;;;;5075523;28;20067;-58
2022/08/01 05:09:30;;;;;;;18.83;3.70;;;17.40;99.90;;;;;;5075691;28;20075;-58
2022/08/01 05:11:58;;;;;;;13.32;2.85;;;17.50;99.90;;;;;;5075596;28;20470;-57
2022/08/01 05:14:25;;;;;;;10.20;2.13;;;17.40;99.90;;;;;;5075484;28;20059;-58
2022/08/01 05:16:51;;;;;;;15.10;3.10;;;17.40;99.90;;;;;;5075452;28;20033;-59
2022/08/01 05:19:17;;;;;;;15.85;3.70;;;17.60;99.90;;;;;;5075253;28;20082;-56
2022/08/01 05:21:43;;;;;;;23.35;3.83;;;17.50;99.90;;;;;;5075354;28;20396;-57
2022/08/01 05:24:08;;;;;;;28.38;3.90;;;17.40;99.90;;;;;;5075332;28;20072;-57
2022/08/01 05:26:34;;;;;;;16.92;3.03;;;17.40;99.90;;;;;;5075128;28;20375;-57
2022/08/01 05:29:00;;;;;;;16.92;3.65;;;17.40;99.90;;;;;;5075253;28;20039;-57
2022/08/01 05:31:26;;;;;;;16.55;3.15;;;17.40;99.90;;;;;;5075108;28;20386;-57
2022/08/01 05:33:51;;;;;;;24.23;3.90;;;17.40;99.90;;;;;;5075019;28;20033;-57
2022/08/01 05:36:17;;;;;;;21.60;3.80;;;17.40;99.90;;;;;;5074447;28;20040;-57
2022/08/01 05:38:43;;;;;;;11.60;3.08;;;17.40;99.90;;;;;;5074763;28;20491;-57
2022/08/01 05:41:09;;;;;;;19.08;3.15;;;17.30;99.90;;;;;;5074915;28;20044;-57
2022/08/01 05:43:35;;;;;;;16.13;3.05;;;17.40;99.90;;;;;;5075003;28;20110;-56
2022/08/01 05:46:01;;;;;;;24.40;3.40;;;17.30;99.90;;;;;;5075238;28;20043;-58
2022/08/01 05:48:27;;;;;;;15.25;3.08;;;17.30;99.90;;;;;;5075044;28;20111;-58
2022/08/01 05:50:53;;;;;;;13.20;2.97;;;17.40;99.90;;;;;;5074599;28;20435;-57
2022/08/01 05:53:19;;;;;;;13.88;2.90;;;17.40;99.90;;;;;;5074774;28;20037;-57
2022/08/01 05:55:45;;;;;;;23.98;3.47;;;17.50;99.90;;;;;;5073668;28;20383;-58
2022/08/01 05:58:10;;;;;;;19.20;4.05;;;17.30;99.90;;;;;;5074700;28;20044;-57
2022/08/01 06:00:36;;;;;;;19.15;3.95;;;17.40;99.90;;;;;;5074473;28;20036;-58
2022/08/01 06:03:01;;;;;;;12.77;2.75;;;17.40;99.90;;;;;;5074613;28;20472;-58
2022/08/01 06:05:27;;;;;;;16.95;3.33;;;17.40;99.90;;;;;;5074689;28;20089;-57
2022/08/01 06:07:53;;;;;;;18.52;3.55;;;17.40;99.90;;;;;;5074321;28;20037;-58
2022/08/01 06:10:19;;;;;;;19.67;3.47;;;17.50;99.90;;;;;;5073146;28;20052;-58
2022/08/01 06:12:44;;;;;;;14.52;2.90;;;17.40;99.90;;;;;;5074530;28;20052;-58
2022/08/01 06:15:11;;;;;;;14.90;2.85;;;17.30;99.90;;;;;;5074238;28;20036;-57
2022/08/01 06:17:36;;;;;;;23.23;3.88;;;17.30;99.90;;;;;;5074315;28;20062;-57
2022/08/01 06:20:03;;;;;;;17.50;2.90;;;17.30;99.90;;;;;;5074217;28;20518;-57
2022/08/01 06:22:29;;;;;;;23.50;3.60;;;17.40;99.90;;;;;;5074361;28;20041;-57
2022/08/01 06:24:55;;;;;;;14.10;3.40;;;17.30;99.90;;;;;;5073968;28;20032;-57
2022/08/01 06:27:21;;;;;;;15.90;3.33;;;17.30;99.90;;;;;;5074203;28;20040;-57
2022/08/01 06:29:47;;;;;;;15.70;2.83;;;17.40;99.90;;;;;;5074067;28;20497;-57
2022/08/01 06:32:12;;;;;;;15.40;3.13;;;17.30;99.90;;;;;;5074454;28;20037;-57
2022/08/01 06:34:38;;;;;;;15.55;2.90;;;17.30;99.90;;;;;;5074266;28;20090;-56
2022/08/01 06:37:04;;;;;;;10.93;2.63;;;17.40;99.90;;;;;;5072262;28;20044;-57
2022/08/01 06:39:29;;;;;;;18.30;3.33;;;17.40;99.90;;;;;;5073781;28;20052;-57
2022/08/01 06:41:55;;;;;;;18.15;2.83;;;17.40;99.90;;;;;;5073641;28;20479;-57
2022/08/01 06:44:20;;;;;;;20.35;4.20;;;17.40;99.90;;;;;;5073896;28;20035;-57
2022/08/01 06:46:46;;;;;;;14.50;2.50;;;17.30;99.90;;;;;;5073867;28;20032;-58
2022/08/01 06:49:12;;;;;;;18.15;3.33;;;17.40;99.90;;;;;;5073592;28;20589;-58
2022/08/01 06:51:37;;;;;;;9.95;2.72;;;17.30;99.90;;;;;;5073850;28;20093;-58
2022/08/01 06:54:03;;;;;;;13.27;2.78;;;17.40;99.90;;;;;;5073759;28;20037;-58
2022/08/01 06:56:29;;;;;;;15.55;2.95;;;17.50;99.90;;;;;;5073642;28;20505;-58
2022/08/01 06:59:00;;;;;;;9.55;2.75;;;17.60;99.90;;;;;;5073765;28;20044;-56
2022/08/01 07:01:29;;;;;;;19.48;2.50;;;17.60;99.90;;;;;;5074083;28;20083;-56
2022/08/01 07:03:55;;;;;;;19.00;3.10;;;17.70;99.90;;;;;;5072307;28;20033;-56
2022/08/01 07:06:22;;;;;;;12.15;2.63;;;17.70;99.90;;;;;;5073455;28;20047;-57
2022/08/01 07:08:48;;;;;;;11.98;3.13;;;17.80;99.90;;;;;;5073677;28;20037;-57
2022/08/01 07:11:13;;;;;;;23.13;3.47;;;17.90;99.90;;;;;;5073571;28;20078;-56
2022/08/01 07:13:39;;;;;;;20.17;2.47;;;18.00;99.90;;;;;;5073561;28;20041;-57
2022/08/01 07:16:04;;;;;;;12.07;2.50;;;18.10;99.90;;;;;;5074026;28;20055;-57
2022/08/01 07:18:30;;;;;;;10.65;2.72;;;18.00;99.90;;;;;;5073524;28;20067;-56
2022/08/01 07:20:56;;;;;;;10.15;2.20;;;18.10;99.90;;;;;;5073576;28;20084;-57
2022/08/01 07:23:21;;;;;;;17.65;2.85;;;18.20;99.90;;;;;;5073326;28;20036;-57
2022/08/01 07:25:50;;;;;;;12.35;2.80;;;18.30;99.90;;;;;;5073518;28;20039;-57
2022/08/01 07:28:16;;;;;;;20.98;4.30;;;18.30;99.90;;;;;;5073344;28;20099;-57
2022/08/01 07:30:44;;;;;;;10.15;2.47;;;18.50;99.90;;;;;;5073652;28;20094;-58
2022/08/01 07:33:09;;;;;;;13.27;2.03;;;18.60;99.90;;;;;;5073437;28;20044;-58
2022/08/01 07:35:37;;;;;;;13.88;2.20;;;18.70;99.90;;;;;;5073439;28;20037;-57
2022/08/01 07:38:04;;;;;;;8.10;2.67;;;18.80;99.90;;;;;;5073228;28;20118;-58
2022/08/01 07:40:30;;;;;;;19.13;4.22;;;18.90;99.90;;;;;;5073256;28;20037;-57
2022/08/01 07:42:55;;;;;;;10.85;2.80;;;19.10;99.90;;;;;;5073617;28;20052;-57
2022/08/01 07:45:21;;;;;;;14.73;2.60;;;19.20;99.90;;;;;;5073369;28;20097;-57
2022/08/01 07:47:49;;;;;;;11.07;2.28;;;19.30;99.90;;;;;;5071990;28;20383;-58
2022/08/01 07:50:15;;;;;;;17.15;2.85;;;19.50;99.90;;;;;;5072064;28;20040;-57
2022/08/01 07:52:41;;;;;;;10.63;3.17;;;19.70;99.90;;;;;;5073299;28;20078;-57
2022/08/01 07:55:08;;;;;;;13.70;2.75;;;19.90;99.90;;;;;;5073260;28;20043;-57
2022/08/01 07:57:33;;;;;;;15.15;2.25;;;20.20;99.90;;;;;;5073201;28;20040;-58
2022/08/01 07:59:59;;;;;;;12.02;2.13;;;20.40;99.90;;;;;;5073176;28;20421;-58
2022/08/01 08:02:24;;;;;;;13.40;1.83;;;20.60;99.90;;;;;;5077017;28;20033;-58
2022/08/01 08:04:50;;;;;;;8.18;1.80;;;20.90;99.90;;;;;;5076797;28;20029;-58
2022/08/01 08:07:16;;;;;;;8.30;1.52;;;20.90;99.90;;;;;;5076731;28;20487;-57
2022/08/01 08:09:41;;;;;;;13.82;2.45;;;22.30;99.90;;;;;;5076695;28;20036;-57
2022/08/01 08:12:07;;;;;;;12.18;2.15;;;23.40;99.90;;;;;;5076779;28;20127;-56
2022/08/01 08:14:33;;;;;;;11.43;2.33;;;23.90;99.90;;;;;;5076480;28;20044;-57
2022/08/01 08:16:59;;;;;;;13.93;3.03;;;24.10;99.90;;;;;;5076670;28;20095;-57
2022/08/01 08:19:25;;;;;;;7.13;1.77;;;24.50;99.90;;;;;;5076680;28;20471;-57
2022/08/01 08:21:50;;;;;;;10.98;2.28;;;25.00;99.90;;;;;;5076557;28;20068;-56
2022/08/01 08:24:19;;;;;;;10.55;1.80;;;24.90;99.90;;;;;;5076240;28;20036;-58
2022/08/01 08:26:45;;;;;;;11.65;1.95;;;25.00;99.90;;;;;;5076555;28;20044;-58
2022/08/01 08:29:11;;;;;;;8.48;2.13;;;25.10;99.90;;;;;;5076459;28;20036;-57
2022/08/01 08:31:37;;;;;;;6.47;1.67;;;25.90;99.90;;;;;;5076389;28;20047;-58
2022/08/01 08:34:03;;;;;;;6.60;1.85;;;26.40;99.90;;;;;;5076560;28;20033;-57
2022/08/01 08:36:28;;;;;;;10.27;2.22;;;26.00;99.90;;;;;;5076308;28;20052;-56
2022/08/01 08:38:54;;;;;;;9.45;1.73;;;25.90;99.90;;;;;;5075766;28;20514;-57
2022/08/01 08:41:21;;;;;;;12.55;2.17;;;25.90;99.90;;;;;;5076271;28;20052;-57
2022/08/01 08:43:48;;;;;;;6.63;1.63;;;25.60;99.90;;;;;;5076144;28;20056;-57
2022/08/01 08:46:14;;;;;;;8.23;1.65;;;25.80;99.90;;;;;;5076112;28;20047;-57
2022/08/01 08:48:41;;;;;;;10.27;1.88;;;25.00;99.90;;;;;;5076107;28;20040;-56
2022/08/01 08:51:10;;;;;;;5.78;1.83;;;26.20;99.90;;;;;;5075874;28;20040;-58
2022/08/01 08:53:43;;;;;;;5.63;1.52;;;26.30;99.90;;;;;;5076038;28;20044;-57
2022/08/01 08:56:11;;;;;;;9.55;1.90;;;26.70;99.90;;;;;;5075979;28;20062;-58
2022/08/01 08:58:38;;;;;;;7.10;1.52;;;26.60;99.90;;;;;;5075925;28;20169;-58
2022/08/01 09:01:10;;;;;;;10.10;1.90;;;25.50;99.90;;;;;;5075783;28;20045;-57
2022/08/01 09:03:36;;;;;;;8.23;1.55;;;25.20;99.90;;;;;;5075865;28;20028;-57
2022/08/01 09:06:02;;;;;;;6.88;1.70;;;26.50;99.90;;;;;;5075506;28;20038;-57
2022/08/01 09:08:28;;;;;;;8.40;1.80;;;26.80;99.90;;;;;;5075731;28;20075;-56
2022/08/01 09:10:54;;;;;;;5.88;1.67;;;26.10;99.90;;;;;;5074894;28;20119;-57
2022/08/01 09:13:20;;;;;;;10.77;2.10;;;26.40;99.90;;;;;;5075254;28;20143;-57
2022/08/01 09:15:58;;;;;;;6.40;1.58;;;26.90;99.90;;;;;;5075367;28;20428;-57
2022/08/01 09:18:31;;;;;;;6.57;1.70;;;27.70;99.90;;;;;;5075459;28;20051;-58
2022/08/01 09:21:19;;;;;;;7.65;1.90;;;27.90;99.90;;;;;;5075576;28;20094;-58
2022/08/01 09:23:50;;;;;;;8.82;1.70;;;28.10;99.90;;;;;;5075332;28;20475;-58
2022/08/01 09:26:19;;;;;;;6.13;1.38;;;28.30;99.70;;;;;;5075442;28;20372;-57
2022/08/01 09:28:46;;;;;;;8.02;1.55;;;27.70;99.90;;;;;;5075307;28;20037;-57
2022/08/01 09:31:16;;;;;;;7.20;1.70;;;26.80;99.90;;;;;;5075209;28;20036;-57
2022/08/01 09:33:58;;;;;;;11.60;2.00;;;26.10;99.90;;;;;;5075258;28;20036;-57
2022/08/01 09:36:25;;;;;;;7.35;1.83;;;26.90;99.90;;;;;;5075214;28;20047;-57
2022/08/01 09:38:54;;;;;;;12.85;1.95;;;27.50;99.90;;;;;;5074816;28;20406;-57
2022/08/01 09:41:32;;;;;;;5.80;1.85;;;26.70;99.90;;;;;;5074955;28;20040;-56
2022/08/01 09:43:59;;;;;;;6.30;1.67;;;26.30;99.90;;;;;;5074906;28;20040;-56
2022/08/01 09:46:24;;;;;;;4.75;1.30;;;26.10;99.90;;;;;;5075005;28;20072;-57
2022/08/01 09:49:04;;;;;;;4.85;1.85;;;26.80;99.90;;;;;;5074614;28;20075;-57
2022/08/01 09:51:39;;;;;;;5.05;1.50;;;27.70;99.90;;;;;;5074647;28;20527;-56
2022/08/01 09:54:06;;;;;;;7.07;1.77;;;27.70;99.50;;;;;;5072878;28;20098;-57
2022/08/01 09:56:37;;;;;;;12.80;1.80;;;27.30;99.90;;;;;;5073941;28;20185;-56
2022/08/01 09:59:04;;;;;;;7.93;1.95;;;27.40;99.80;;;;;;5074132;28;20032;-62
2022/08/01 10:01:43;;;;;;;7.50;1.42;;;27.90;99.30;;;;;;5071518;28;20037;-57
2022/08/01 10:04:13;;;;;;;;;;;28.10;99.10;;;;;;5071551;28;20040;-62
2022/08/01 10:06:42;;;;;;;4.63;1.80;;;27.40;98.50;;;;;;5073190;28;19961;-57
2022/08/01 10:09:08;;;;;;;3.88;1.50;;;27.30;99.90;;;;;;5072199;28;20033;-58
2022/08/01 10:11:38;;;;;;;6.13;1.80;;;28.70;99.90;;;;;;5071626;28;20037;-56
2022/08/01 10:14:05;;;;;;;5.72;1.00;;;28.30;99.30;;;;;;5072587;28;20123;-57
2022/08/01 10:16:33;;;;;;;7.07;1.58;;;27.10;99.30;;;;;;5073729;28;20433;-61
2022/08/01 10:18:59;;;;;;;4.18;1.30;;;27.20;98.40;;;;;;5072746;28;20044;-63
2022/08/01 10:21:27;;;;;;;7.40;1.50;;;28.10;98.90;;;;;;5070537;28;20049;-61
2022/08/01 10:23:55;;;;;;;11.10;3.03;;;28.40;99.00;;;;;;5073418;28;20037;-63
2022/08/01 10:26:24;;;;;;;;;;;28.20;98.90;;;;;;5068487;28;20039;-63
2022/08/01 10:28:51;;;;;;;6.77;1.60;;;27.10;98.50;;;;;;5073844;28;19920;-63
2022/08/01 10:31:17;;;;;;;6.30;1.48;;;26.80;99.90;;;;;;5073317;28;20036;-63
2022/08/01 10:33:43;;;;;;;5.28;1.10;;;28.20;99.50;;;;;;5073781;28;20044;-63
2022/08/01 10:36:10;;;;;;;4.03;1.48;;;28.60;98.90;;;;;;5073673;28;20036;-62
2022/08/01 10:38:36;;;;;;;8.95;1.55;;;29.00;98.20;;;;;;5073137;28;20406;-62
2022/08/01 10:41:04;;;;;;;10.63;2.20;;;29.40;97.40;;;;;;5074338;28;20051;-63
2022/08/01 10:43:29;;;;;;;6.60;1.70;;;28.80;96.90;;;;;;5074448;28;20102;-63
2022/08/01 10:45:55;;;;;;;6.45;1.20;;;28.90;96.40;;;;;;5074282;28;20037;-63
2022/08/01 10:48:44;;;;;;;8.48;1.77;;;29.20;97.40;;;;;;5074090;28;20116;-63
2022/08/01 10:51:10;;;;;;;6.70;1.85;;;29.30;96.00;;;;;;5072825;28;20048;-63
2022/08/01 10:53:36;;;;;;;8.65;1.60;;;28.80;97.20;;;;;;5074182;28;20214;-63
2022/08/01 10:56:07;;;;;;;5.95;1.77;;;28.00;97.90;;;;;;5069383;28;20376;-63
2022/08/01 10:58:37;;;;;;;5.60;1.17;;;27.30;97.50;;;;;;5070737;28;20550;-63
2022/08/01 11:01:20;;;;;;;5.70;1.52;;;26.90;98.50;;;;;;5072428;28;20098;-64
2022/08/01 11:04:06;;;;;;;6.32;1.58;;;27.10;97.90;;;;;;5069064;28;20475;-61
2022/08/01 11:06:34;;;;;;;8.00;1.65;;;27.50;97.10;;;;;;5073607;28;20037;-63
2022/08/01 11:09:19;;;;;;;5.88;1.50;;;27.90;97.70;;;;;;5073014;28;20043;-62
2022/08/01 11:11:59;;;;;;;6.75;1.30;;;28.50;96.90;;;;;;5073423;28;20036;-63
2022/08/01 11:14:24;;;;;;;3.78;1.23;;;28.70;96.20;;;;;;5073591;28;20110;-62
2022/08/01 11:16:50;;;;;;;7.55;1.83;;;28.20;98.00;;;;;;5073644;28;20036;-63
2022/08/01 11:19:16;;;;;;;5.93;1.40;;;28.00;96.70;;;;;;5073433;28;20036;-64
2022/08/01 11:21:54;;;;;;;10.88;1.58;;;28.00;95.60;;;;;;5073355;28;20072;-62
2022/08/01 11:24:48;;;;;;;7.35;1.33;;;28.20;97.00;;;;;;5073441;28;20032;-62
2022/08/01 11:27:30;;;;;;;3.95;1.23;;;28.10;96.10;;;;;;5072828;28;20479;-63
2022/08/01 11:30:11;;;;;;;3.72;1.00;;;28.30;96.00;;;;;;5073163;28;20041;-62
2022/08/01 11:32:47;;;;;;;7.00;1.52;;;28.20;97.30;;;;;;5073292;28;20483;-63
2022/08/01 11:35:14;;;;;;;5.95;1.50;;;27.90;96.70;;;;;;5075188;28;20036;-63
2022/08/01 11:37:40;;;;;;;9.90;1.70;;;27.60;97.20;;;;;;5077400;28;20051;-63
2022/08/01 11:40:18;;;;;;;4.35;1.30;;;27.50;97.00;;;;;;5075975;28;20139;-64
2022/08/01 11:42:44;;;;;;;5.03;1.10;;;28.00;96.40;;;;;;5077352;28;20036;-64
2022/08/01 11:45:11;;;;;;;5.60;1.00;;;28.10;97.00;;;;;;5077261;28;20497;-63
2022/08/01 11:47:43;;;;;;;5.78;1.33;;;28.00;96.20;;;;;;5077454;28;20044;-64
2022/08/01 11:50:29;;;;;;;6.22;1.27;;;28.40;95.50;;;;;;5075789;28;20086;-64
2022/08/01 11:53:04;;;;;;;3.92;1.30;;;28.20;95.70;;;;;;5076697;28;20045;-58
2022/08/01 11:55:29;;;;;;;6.07;1.15;;;28.70;94.60;;;;;;5077084;28;20044;-58
2022/08/01 11:58:06;;;;;;;8.45;1.33;;;28.60;95.40;;;;;;5077031;28;20037;-57
2022/08/01 12:00:33;;;;;;;5.35;1.33;;;28.80;95.20;;;;;;5076941;28;20048;-57
2022/08/01 12:03:02;;;;;;;4.95;1.38;;;29.00;95.20;;;;;;5076944;28;20043;-57
2022/08/01 12:05:30;;;;;;;7.13;1.30;;;29.30;96.00;;;;;;5075538;28;20371;-57
2022/08/01 12:07:56;;;;;;;4.90;1.00;;;29.20;94.60;;;;;;5076888;28;20086;-57
2022/08/01 12:10:26;;;;;;;6.50;1.70;;;28.90;95.10;;;;;;5076787;28;20075;-58
2022/08/01 12:12:59;;;;;;;7.28;1.52;;;28.80;94.70;;;;;;5076767;28;20044;-59
2022/08/01 12:15:28;;;;;;;4.38;1.30;;;29.00;94.50;;;;;;5076677;28;20078;-58
2022/08/01 12:17:59;;;;;;;4.47;1.00;;;28.60;94.40;;;;;;5076647;28;20056;-58
2022/08/01 12:20:37;;;;;;;6.40;1.10;;;28.90;95.40;;;;;;5076422;28;20482;-58
2022/08/01 12:23:05;;;;;;;5.47;1.40;;;29.20;95.10;;;;;;5076651;28;20036;-58
2022/08/01 12:25:32;;;;;;;4.68;1.38;;;29.10;94.40;;;;;;5076510;28;20482;-58
2022/08/01 12:28:03;;;;;;;3.60;1.00;;;28.80;93.90;;;;;;5076860;28;20378;-58
2022/08/01 12:30:30;;;;;;;6.50;1.58;;;29.10;94.10;;;;;;5075223;28;20043;-58
2022/08/01 12:32:57;;;;;;;4.32;0.95;;;29.00;94.80;;;;;;5076707;28;20044;-58
2022/08/01 12:35:28;;;;;;;4.35;1.25;;;28.70;94.10;;;;;;5076392;28;20032;-58
2022/08/01 12:38:06;;;;;;;8.45;1.13;;;28.60;94.80;;;;;;5076339;28;20040;-58
2022/08/01 12:40:34;;;;;;;7.40;1.40;;;28.40;96.10;;;;;;5075983;28;20044;-57
2022/08/01 12:43:06;;;;;;;4.80;1.50;;;28.20;95.70;;;;;;5075478;28;20043;-57
2022/08/01 12:45:42;;;;;;;5.60;1.33;;;28.40;95.80;;;;;;5076035;28;20051;-57
2022/08/01 12:48:13;;;;;;;5.22;1.38;;;28.20;94.60;;;;;;5074502;28;20041;-64
2022/08/01 12:50:42;;;;;;;6.07;1.27;;;28.00;95.30;;;;;;5075988;28;20042;-64